createdAt,value
2019-02-23T00:04:03.153Z,80.30
2019-02-23T00:08:38.918Z,80.60
2019-02-23T00:13:14.701Z,80.20
2019-02-23T00:17:50.472Z,80.90
2019-02-23T00:22:26.256Z,81.10
2019-02-23T00:27:02.056Z,82.60
2019-02-23T00:31:37.849Z,82.30
2019-02-23T00:36:13.617Z,82.20
2019-02-23T00:40:49.405Z,82.50
2019-02-23T00:45:25.185Z,83.30
2019-02-23T00:50:00.973Z,83.30
2019-02-23T00:54:36.820Z,84.10
2019-02-23T00:59:12.601Z,85.30
2019-02-23T01:03:48.373Z,85.60
2019-02-23T01:08:24.174Z,85.40
2019-02-23T01:12:59.941Z,82.30
2019-02-23T01:17:35.722Z,82.10
2019-02-23T01:22:11.479Z,82.80
2019-02-23T01:26:47.318Z,83.40
2019-02-23T01:31:23.385Z,83.20
2019-02-23T01:35:59.160Z,83.70
2019-02-23T01:40:34.941Z,83.80
2019-02-23T01:45:11.539Z,84.20
2019-02-23T01:49:58.318Z,83.90
2019-02-23T01:54:24.836Z,84.30
2019-02-23T01:59:00.596Z,83.90
2019-02-23T02:03:36.382Z,84.00
2019-02-23T02:08:12.350Z,84.20
2019-02-23T02:12:48.133Z,83.40
2019-02-23T02:17:23.901Z,84.70
2019-02-23T02:21:59.712Z,84.60
2019-02-23T02:26:35.489Z,84.50
2019-02-23T02:31:11.277Z,83.40
2019-02-23T02:35:47.084Z,84.00
2019-02-23T02:40:22.880Z,84.30
2019-02-23T02:44:58.654Z,84.90
2019-02-23T02:49:34.433Z,84.90
2019-02-23T02:54:10.199Z,84.90
2019-02-23T02:58:45.988Z,85.30
2019-02-23T03:03:21.749Z,86.30
2019-02-23T03:07:57.533Z,86.30
2019-02-23T03:12:33.305Z,84.60
2019-02-23T03:17:09.084Z,84.30
2019-02-23T03:21:44.855Z,85.30
2019-02-23T03:26:20.656Z,85.00
2019-02-23T03:30:56.437Z,85.50
2019-02-23T03:35:32.400Z,85.30
2019-02-23T03:40:09.917Z,84.60
2019-02-23T03:44:45.694Z,84.70
2019-02-23T03:49:21.672Z,84.90
2019-02-23T03:53:57.471Z,84.60
2019-02-23T03:58:33.227Z,85.40
2019-02-23T04:03:09.017Z,85.00
2019-02-23T04:07:44.796Z,85.30
2019-02-23T04:12:20.581Z,85.40
2019-02-23T04:16:56.348Z,87.30
2019-02-23T04:21:32.129Z,88.00
2019-02-23T04:26:08.115Z,86.90
2019-02-23T04:30:43.893Z,84.80
2019-02-23T04:35:19.653Z,84.90
2019-02-23T04:39:55.433Z,85.80
2019-02-23T04:44:31.295Z,86.60
2019-02-23T04:49:07.084Z,86.40
2019-02-23T04:53:42.848Z,85.70
2019-02-23T04:58:18.235Z,85.80
2019-02-23T05:02:54.009Z,85.30
2019-02-23T05:07:29.815Z,86.60
2019-02-23T05:12:05.648Z,87.50
2019-02-23T05:16:41.468Z,87.60
2019-02-23T05:21:26.077Z,88.10
2019-02-23T05:25:54.742Z,88.30
2019-02-23T05:30:30.514Z,87.90
2019-02-23T05:35:07.454Z,89.30
2019-02-23T05:39:43.289Z,89.50
2019-02-23T05:44:19.069Z,88.10
2019-02-23T05:48:54.874Z,88.10
2019-02-23T05:53:30.661Z,88.60
2019-02-23T05:58:06.429Z,88.30
2019-02-23T06:02:45.006Z,87.50
2019-02-23T06:07:19.701Z,86.30
2019-02-23T06:11:55.512Z,85.90
2019-02-23T06:16:31.282Z,86.10
2019-02-23T06:21:07.101Z,85.30
2019-02-23T06:25:42.873Z,85.70
2019-02-23T06:30:18.653Z,86.00
2019-02-23T06:34:54.409Z,85.30
2019-02-23T06:39:30.185Z,86.60
2019-02-23T06:44:05.957Z,87.20
2019-02-23T06:48:41.757Z,86.70
2019-02-23T06:53:17.595Z,84.90
2019-02-23T06:57:53.441Z,85.30
2019-02-23T07:02:29.286Z,85.00
2019-02-23T07:07:05.073Z,85.40
2019-02-23T07:11:40.922Z,85.10
2019-02-23T07:16:16.706Z,84.80
2019-02-23T07:20:52.477Z,84.80
2019-02-23T07:25:28.905Z,85.90
2019-02-23T07:30:04.888Z,87.60
2019-02-23T07:34:42.474Z,86.50
2019-02-23T07:39:18.267Z,85.50
2019-02-23T07:43:54.131Z,85.00
2019-02-23T07:48:29.925Z,86.20
2019-02-23T07:53:05.731Z,86.80
2019-02-23T07:57:41.524Z,86.50
2019-02-23T08:02:17.336Z,85.60
2019-02-23T08:06:53.196Z,85.50
2019-02-23T08:11:28.984Z,85.80
2019-02-23T08:16:04.768Z,86.80
2019-02-23T08:20:40.552Z,85.80
2019-02-23T08:25:16.330Z,86.70
2019-02-23T08:29:52.164Z,86.60
2019-02-23T08:34:27.926Z,86.90
2019-02-23T08:39:04.310Z,86.50
2019-02-23T08:43:40.081Z,86.70
2019-02-23T08:48:15.954Z,87.70
2019-02-23T08:52:51.713Z,87.50
2019-02-23T08:57:27.517Z,86.60
2019-02-23T09:02:03.329Z,86.70
2019-02-23T09:06:39.182Z,85.30
2019-02-23T09:11:14.944Z,84.50
2019-02-23T09:15:50.735Z,83.70
2019-02-23T09:20:29.514Z,84.70
2019-02-23T09:25:04.293Z,83.90
2019-02-23T09:29:40.064Z,84.30
2019-02-23T09:34:17.649Z,83.40
2019-02-23T09:38:53.416Z,83.20
2019-02-23T09:43:29.212Z,82.10
2019-02-23T09:48:04.978Z,82.10
2019-02-23T09:52:42.644Z,82.90
2019-02-23T09:57:18.403Z,82.10
2019-02-23T10:01:54.191Z,82.20
2019-02-23T10:06:30.173Z,83.00
2019-02-23T10:11:05.959Z,84.00
2019-02-23T10:15:41.729Z,83.90
2019-02-23T10:20:17.520Z,83.00
2019-02-23T10:24:53.288Z,82.50
2019-02-23T10:29:29.060Z,82.80
2019-02-23T10:34:04.828Z,82.90
2019-02-23T10:38:40.613Z,84.10
2019-02-23T10:43:16.376Z,83.20
2019-02-23T10:47:52.167Z,83.10
2019-02-23T10:52:27.945Z,82.20
2019-02-23T10:57:03.732Z,81.30
2019-02-23T11:01:41.215Z,80.50
2019-02-23T11:06:17.053Z,79.60
2019-02-23T11:10:52.849Z,79.00
2019-02-23T11:15:29.336Z,79.10
2019-02-23T11:20:05.981Z,76.70
2019-02-23T11:24:41.961Z,76.10
2019-02-23T11:29:17.954Z,75.00
2019-02-23T11:33:53.749Z,74.90
2019-02-23T11:38:29.516Z,75.20
2019-02-23T11:43:05.305Z,75.10
2019-02-23T11:47:41.158Z,74.40
2019-02-23T11:52:16.962Z,73.50
2019-02-23T11:56:52.721Z,73.50
2019-02-23T12:01:28.517Z,74.60
2019-02-23T12:06:04.293Z,73.50
2019-02-23T12:10:40.213Z,73.30
2019-02-23T12:15:16.011Z,72.60
2019-02-23T12:19:50.067Z,73.20
2019-02-23T12:24:25.837Z,73.10
2019-02-23T12:29:01.622Z,72.50
2019-02-23T12:33:37.416Z,71.60
2019-02-23T12:38:13.213Z,71.60
2019-02-23T12:42:48.988Z,71.10
2019-02-23T12:47:24.793Z,70.60
2019-02-23T12:52:00.574Z,69.60
2019-02-23T12:56:36.368Z,68.80
2019-02-23T13:01:12.150Z,67.90
2019-02-23T13:05:47.934Z,66.80
2019-02-23T13:10:23.701Z,67.30
2019-02-23T13:15:33.366Z,68.20
2019-02-23T13:20:43.817Z,66.50
2019-02-23T13:25:29.341Z,65.80
2019-02-23T13:30:30.394Z,65.50
2019-02-23T13:35:46.988Z,64.20
2019-02-23T13:41:01.612Z,64.60
2019-02-23T13:46:03.261Z,64.30
2019-02-23T13:50:54.298Z,64.10
2019-02-23T13:56:16.890Z,63.60
2019-02-23T14:01:22.435Z,63.50
2019-02-23T14:06:39.400Z,63.10
2019-02-23T14:11:44.182Z,61.90
2019-02-23T14:21:45.453Z,60.30
2019-02-23T14:26:56.545Z,60.30
2019-02-23T14:36:33.342Z,59.50
2019-02-23T14:41:48.908Z,59.60
2019-02-23T14:47:09.469Z,59.30
2019-02-23T14:57:15.524Z,57.70
2019-02-23T15:02:06.645Z,57.30
2019-02-23T15:07:19.285Z,57.10
2019-02-23T15:12:21.234Z,56.00
2019-02-23T15:17:19.533Z,55.50
2019-02-23T15:22:32.206Z,54.70
2019-02-23T15:27:43.080Z,54.00
2019-02-23T15:32:55.545Z,53.20
2019-02-23T15:38:08.061Z,53.10
2019-02-23T15:52:36.956Z,51.60
2019-02-23T15:57:12.789Z,51.80
2019-02-23T16:01:48.561Z,51.70
2019-02-23T16:06:24.337Z,51.60
2019-02-23T16:11:00.104Z,51.70
2019-02-23T16:15:35.896Z,52.10
2019-02-23T16:20:11.661Z,52.10
2019-02-23T16:24:48.578Z,51.70
2019-02-23T16:29:24.348Z,51.70
2019-02-23T16:34:00.149Z,52.00
2019-02-23T16:38:35.916Z,52.40
2019-02-23T16:43:11.704Z,52.70
2019-02-23T16:47:47.475Z,53.20
2019-02-23T16:52:23.252Z,54.10
2019-02-23T16:56:59.008Z,54.30
2019-02-23T17:01:34.794Z,54.30
2019-02-23T17:06:10.561Z,54.10
2019-02-23T17:10:46.425Z,54.60
2019-02-23T17:15:22.184Z,56.50
2019-02-23T17:19:57.973Z,57.60
2019-02-23T17:24:33.729Z,57.50
2019-02-23T17:29:09.545Z,53.80
2019-02-23T17:33:45.307Z,53.00
2019-02-23T17:38:21.093Z,52.10
2019-02-23T17:42:56.858Z,52.30
2019-02-23T17:47:32.648Z,52.80
2019-02-23T17:52:07.804Z,52.60
2019-02-23T17:56:43.594Z,52.30
2019-02-23T18:01:19.368Z,53.80
2019-02-23T18:05:55.164Z,53.60
2019-02-23T18:10:30.921Z,54.80
2019-02-23T18:15:07.347Z,52.90
2019-02-23T18:19:43.105Z,52.50
2019-02-23T18:24:18.882Z,51.50
2019-02-23T18:28:54.641Z,51.90
2019-02-23T18:33:30.519Z,52.00
2019-02-23T18:38:06.476Z,52.70
2019-02-23T18:42:42.352Z,52.10
2019-02-23T18:47:18.420Z,52.60
2019-02-23T18:51:54.878Z,53.70
2019-02-23T18:56:30.799Z,54.30
2019-02-23T19:01:06.578Z,55.00
2019-02-23T19:05:49.709Z,55.60
2019-02-23T19:10:19.809Z,57.10
2019-02-23T19:14:55.565Z,58.70
2019-02-23T19:19:31.357Z,59.80
2019-02-23T19:24:07.120Z,60.60
2019-02-23T19:28:43.386Z,60.40
2019-02-23T19:33:19.442Z,60.50
2019-02-23T19:37:55.260Z,61.10
2019-02-23T19:42:31.021Z,59.90
2019-02-23T19:47:19.229Z,60.00
2019-02-23T19:51:56.604Z,59.70
2019-02-23T19:56:32.474Z,60.10
2019-02-23T20:01:08.230Z,60.20
2019-02-23T20:05:44.020Z,59.30
2019-02-23T20:10:19.788Z,58.80
2019-02-23T20:14:55.556Z,58.60
2019-02-23T20:19:31.317Z,59.40
2019-02-23T20:24:07.089Z,59.90
2019-02-23T20:28:45.434Z,59.00
2019-02-23T20:33:21.327Z,57.60
2019-02-23T20:37:57.189Z,58.30
2019-02-23T20:42:32.973Z,59.30
2019-02-23T20:47:08.738Z,58.80
2019-02-23T20:51:44.596Z,59.20
2019-02-23T20:56:20.353Z,58.10
2019-02-23T21:00:56.150Z,58.50
2019-02-23T21:05:31.914Z,59.00
2019-02-23T21:10:08.270Z,59.20
2019-02-23T21:14:44.044Z,59.20
2019-02-23T21:19:19.845Z,59.90
2019-02-23T21:23:55.612Z,60.70
2019-02-23T21:28:31.396Z,60.90
2019-02-23T21:33:07.168Z,61.80
2019-02-23T21:37:42.962Z,61.80
2019-02-23T21:42:18.743Z,62.30
2019-02-23T21:46:54.527Z,62.70
2019-02-23T21:51:30.293Z,62.50
2019-02-23T21:56:06.074Z,62.90
2019-02-23T22:00:41.857Z,63.60
2019-02-23T22:05:17.701Z,64.40
2019-02-23T22:09:53.537Z,64.50
2019-02-23T22:14:29.322Z,64.10
2019-02-23T22:19:05.165Z,65.40
2019-02-23T22:23:40.983Z,64.90
2019-02-23T22:28:16.811Z,65.80
2019-02-23T22:32:52.598Z,65.40
2019-02-23T22:37:28.345Z,65.70
2019-02-23T22:42:04.209Z,66.90
2019-02-23T22:46:40.032Z,65.80
2019-02-23T22:51:15.821Z,66.50
2019-02-23T22:55:51.583Z,65.90
2019-02-23T23:00:38.664Z,66.00
2019-02-23T23:05:14.725Z,66.50
2019-02-23T23:09:50.509Z,66.50
2019-02-23T23:14:26.272Z,66.70
2019-02-23T23:19:02.054Z,66.90
2019-02-23T23:23:37.814Z,67.60
2019-02-23T23:28:13.597Z,68.50
2019-02-23T23:32:49.357Z,69.20
2019-02-23T23:37:25.126Z,69.00
2019-02-23T23:42:00.900Z,69.40
2019-02-23T23:46:36.693Z,69.30
2019-02-23T23:51:12.480Z,70.10
2019-02-23T23:55:48.249Z,68.80
